sensor_id;sensor_type;location;lat;lon;timestamp;temperature;humidity
12315;DHT22;23886;46.614;14.276;2022-08-27T00:02:05;18.80;99.90
12315;DHT22;23886;46.614;14.276;2022-08-27T00:04:33;18.90;99.90
12315;DHT22;23886;46.614;14.276;2022-08-27T00:07:02;18.80;99.90
12315;DHT22;23886;46.614;14.276;2022-08-27T00:09:29;18.80;99.90
12315;DHT22;23886;46.614;14.276;2022-08-27T00:11:56;18.70;99.90
12315;DHT22;23886;46.614;14.276;2022-08-27T00:14:25;18.70;99.90
12315;DHT22;23886;46.614;14.276;2022-08-27T00:16:54;18.70;99.90
12315;DHT22;23886;46.614;14.276;2022-08-27T00:19:22;18.70;99.90
12315;DHT22;23886;46.614;14.276;2022-08-27T00:21:49;18.70;99.90
12315;DHT22;23886;46.614;14.276;2022-08-27T00:24:16;18.70;99.90
12315;DHT22;23886;46.614;14.276;2022-08-27T00:26:43;18.70;99.90
12315;DHT22;23886;46.614;14.276;2022-08-27T00:29:10;18.60;99.90
12315;DHT22;23886;46.614;14.276;2022-08-27T00:31:37;18.60;99.90
12315;DHT22;23886;46.614;14.276;2022-08-27T00:34:06;18.60;99.90
12315;DHT22;23886;46.614;14.276;2022-08-27T00:36:32;18.60;99.90
12315;DHT22;23886;46.614;14.276;2022-08-27T00:38:59;18.60;99.90
12315;DHT22;23886;46.614;14.276;2022-08-27T00:41:27;18.50;99.90
12315;DHT22;23886;46.614;14.276;2022-08-27T00:43:55;18.50;99.90
12315;DHT22;23886;46.614;14.276;2022-08-27T00:46:25;18.50;99.90
12315;DHT22;23886;46.614;14.276;2022-08-27T00:48:56;18.50;99.90
12315;DHT22;23886;46.614;14.276;2022-08-27T00:51:27;18.40;99.90
12315;DHT22;23886;46.614;14.276;2022-08-27T00:53:56;18.40;99.90
12315;DHT22;23886;46.614;14.276;2022-08-27T00:56:26;18.50;99.90
12315;DHT22;23886;46.614;14.276;2022-08-27T00:58:54;18.50;99.90
12315;DHT22;23886;46.614;14.276;2022-08-27T01:01:25;18.50;99.90
12315;DHT22;23886;46.614;14.276;2022-08-27T01:03:55;18.60;99.90
12315;DHT22;23886;46.614;14.276;2022-08-27T01:06:24;18.70;99.90
12315;DHT22;23886;46.614;14.276;2022-08-27T01:08:58;18.70;99.90
12315;DHT22;23886;46.614;14.276;2022-08-27T01:11:26;18.70;99.90
12315;DHT22;23886;46.614;14.276;2022-08-27T01:13:53;18.80;99.90
12315;DHT22;23886;46.614;14.276;2022-08-27T01:16:22;18.70;99.90
12315;DHT22;23886;46.614;14.276;2022-08-27T01:18:50;18.70;99.90
12315;DHT22;23886;46.614;14.276;2022-08-27T01:21:23;18.60;99.90
12315;DHT22;23886;46.614;14.276;2022-08-27T01:23:58;18.60;99.90
12315;DHT22;23886;46.614;14.276;2022-08-27T01:26:29;18.60;99.90
12315;DHT22;23886;46.614;14.276;2022-08-27T01:28:57;18.50;99.90
12315;DHT22;23886;46.614;14.276;2022-08-27T01:31:24;18.40;99.90
12315;DHT22;23886;46.614;14.276;2022-08-27T01:33:57;18.30;99.90
12315;DHT22;23886;46.614;14.276;2022-08-27T01:36:24;18.20;99.90
12315;DHT22;23886;46.614;14.276;2022-08-27T01:38:51;18.10;99.90
12315;DHT22;23886;46.614;14.276;2022-08-27T01:41:18;18.10;99.90
12315;DHT22;23886;46.614;14.276;2022-08-27T01:43:47;18.00;99.90
12315;DHT22;23886;46.614;14.276;2022-08-27T01:46:14;18.20;99.90
12315;DHT22;23886;46.614;14.276;2022-08-27T01:48:41;18.30;99.90
12315;DHT22;23886;46.614;14.276;2022-08-27T01:51:08;18.20;99.90
12315;DHT22;23886;46.614;14.276;2022-08-27T01:53:35;18.10;99.90
12315;DHT22;23886;46.614;14.276;2022-08-27T01:56:03;18.10;99.90
12315;DHT22;23886;46.614;14.276;2022-08-27T01:58:31;18.00;99.90
12315;DHT22;23886;46.614;14.276;2022-08-27T02:01:01;18.00;99.90
12315;DHT22;23886;46.614;14.276;2022-08-27T02:03:30;18.00;99.90
12315;DHT22;23886;46.614;14.276;2022-08-27T02:06:04;18.00;99.90
12315;DHT22;23886;46.614;14.276;2022-08-27T02:08:32;18.00;99.90
12315;DHT22;23886;46.614;14.276;2022-08-27T02:10:59;18.00;99.90
12315;DHT22;23886;46.614;14.276;2022-08-27T02:13:27;17.90;99.90
12315;DHT22;23886;46.614;14.276;2022-08-27T02:15:54;18.00;99.90
12315;DHT22;23886;46.614;14.276;2022-08-27T02:18:22;18.00;99.90
12315;DHT22;23886;46.614;14.276;2022-08-27T02:20:49;17.90;99.90
12315;DHT22;23886;46.614;14.276;2022-08-27T02:23:17;18.00;99.90
12315;DHT22;23886;46.614;14.276;2022-08-27T02:25:44;17.90;99.90
12315;DHT22;23886;46.614;14.276;2022-08-27T02:28:12;18.00;99.90
12315;DHT22;23886;46.614;14.276;2022-08-27T02:30:39;17.90;99.90
12315;DHT22;23886;46.614;14.276;2022-08-27T02:33:06;17.90;99.90
12315;DHT22;23886;46.614;14.276;2022-08-27T02:35:36;17.80;99.90
12315;DHT22;23886;46.614;14.276;2022-08-27T02:38:06;17.80;99.90
12315;DHT22;23886;46.614;14.276;2022-08-27T02:40:33;17.70;99.90
12315;DHT22;23886;46.614;14.276;2022-08-27T02:43:02;17.70;99.90
12315;DHT22;23886;46.614;14.276;2022-08-27T02:45:29;17.70;99.90
12315;DHT22;23886;46.614;14.276;2022-08-27T02:47:56;17.80;99.90
12315;DHT22;23886;46.614;14.276;2022-08-27T02:50:23;17.70;99.90
12315;DHT22;23886;46.614;14.276;2022-08-27T02:52:52;17.60;99.90
12315;DHT22;23886;46.614;14.276;2022-08-27T02:55:19;17.60;99.90
12315;DHT22;23886;46.614;14.276;2022-08-27T02:57:47;17.70;99.90
12315;DHT22;23886;46.614;14.276;2022-08-27T03:00:17;17.70;99.90
12315;DHT22;23886;46.614;14.276;2022-08-27T03:02:45;17.70;99.90
12315;DHT22;23886;46.614;14.276;2022-08-27T03:05:13;17.60;99.90
12315;DHT22;23886;46.614;14.276;2022-08-27T03:07:41;17.60;99.90
12315;DHT22;23886;46.614;14.276;2022-08-27T03:10:12;17.50;99.90
12315;DHT22;23886;46.614;14.276;2022-08-27T03:12:40;17.50;99.90
12315;DHT22;23886;46.614;14.276;2022-08-27T03:15:10;17.60;99.90
12315;DHT22;23886;46.614;14.276;2022-08-27T03:17:38;17.60;99.90
12315;DHT22;23886;46.614;14.276;2022-08-27T03:20:23;17.60;99.90
12315;DHT22;23886;46.614;14.276;2022-08-27T03:22:50;17.60;99.90
12315;DHT22;23886;46.614;14.276;2022-08-27T03:25:18;17.70;99.90
12315;DHT22;23886;46.614;14.276;2022-08-27T03:27:45;17.70;99.90
12315;DHT22;23886;46.614;14.276;2022-08-27T03:30:15;17.60;99.90
12315;DHT22;23886;46.614;14.276;2022-08-27T03:32:43;17.50;99.90
12315;DHT22;23886;46.614;14.276;2022-08-27T03:35:10;17.50;99.90
12315;DHT22;23886;46.614;14.276;2022-08-27T03:37:38;17.50;99.90
12315;DHT22;23886;46.614;14.276;2022-08-27T03:40:06;17.50;99.90
12315;DHT22;23886;46.614;14.276;2022-08-27T03:42:36;17.50;99.90
12315;DHT22;23886;46.614;14.276;2022-08-27T03:45:03;17.50;99.90
12315;DHT22;23886;46.614;14.276;2022-08-27T03:47:31;17.60;99.90
12315;DHT22;23886;46.614;14.276;2022-08-27T03:49:59;17.50;99.90
12315;DHT22;23886;46.614;14.276;2022-08-27T03:52:27;17.60;99.90
12315;DHT22;23886;46.614;14.276;2022-08-27T03:54:54;17.60;99.90
12315;DHT22;23886;46.614;14.276;2022-08-27T03:57:21;17.50;99.90
12315;DHT22;23886;46.614;14.276;2022-08-27T03:59:49;17.50;99.90
12315;DHT22;23886;46.614;14.276;2022-08-27T04:02:17;17.50;99.90
12315;DHT22;23886;46.614;14.276;2022-08-27T04:04:44;17.40;99.90
12315;DHT22;23886;46.614;14.276;2022-08-27T04:07:11;17.40;99.90
12315;DHT22;23886;46.614;14.276;2022-08-27T04:09:38;17.50;99.90
12315;DHT22;23886;46.614;14.276;2022-08-27T04:12:05;17.60;99.90
12315;DHT22;23886;46.614;14.276;2022-08-27T04:14:33;17.50;99.90
12315;DHT22;23886;46.614;14.276;2022-08-27T04:17:02;17.50;99.90
12315;DHT22;23886;46.614;14.276;2022-08-27T04:19:29;17.40;99.90
12315;DHT22;23886;46.614;14.276;2022-08-27T04:21:59;17.40;99.90
12315;DHT22;23886;46.614;14.276;2022-08-27T04:24:28;17.40;99.90
12315;DHT22;23886;46.614;14.276;2022-08-27T04:26:55;17.40;99.90
12315;DHT22;23886;46.614;14.276;2022-08-27T04:29:22;17.30;99.90
12315;DHT22;23886;46.614;14.276;2022-08-27T04:31:49;17.40;99.90
12315;DHT22;23886;46.614;14.276;2022-08-27T04:34:17;17.30;99.90
12315;DHT22;23886;46.614;14.276;2022-08-27T04:36:45;17.40;99.90
12315;DHT22;23886;46.614;14.276;2022-08-27T04:39:12;17.30;99.90
12315;DHT22;23886;46.614;14.276;2022-08-27T04:41:39;17.40;99.90
12315;DHT22;23886;46.614;14.276;2022-08-27T04:44:09;17.40;99.90
12315;DHT22;23886;46.614;14.276;2022-08-27T04:46:39;17.50;99.90
12315;DHT22;23886;46.614;14.276;2022-08-27T04:49:08;17.40;99.90
12315;DHT22;23886;46.614;14.276;2022-08-27T04:51:37;17.50;99.90
12315;DHT22;23886;46.614;14.276;2022-08-27T04:54:05;17.50;99.90
12315;DHT22;23886;46.614;14.276;2022-08-27T04:56:33;17.60;99.90
12315;DHT22;23886;46.614;14.276;2022-08-27T04:59:01;17.60;99.90
12315;DHT22;23886;46.614;14.276;2022-08-27T05:01:29;17.60;99.90
12315;DHT22;23886;46.614;14.276;2022-08-27T05:03:57;17.70;99.90
12315;DHT22;23886;46.614;14.276;2022-08-27T05:06:24;17.80;99.90
12315;DHT22;23886;46.614;14.276;2022-08-27T05:08:53;17.80;99.90
12315;DHT22;23886;46.614;14.276;2022-08-27T05:11:21;17.90;99.90
12315;DHT22;23886;46.614;14.276;2022-08-27T05:13:49;17.90;99.90
12315;DHT22;23886;46.614;14.276;2022-08-27T05:16:18;18.00;99.90
12315;DHT22;23886;46.614;14.276;2022-08-27T05:18:46;18.10;99.90
12315;DHT22;23886;46.614;14.276;2022-08-27T05:21:16;18.20;99.90
12315;DHT22;23886;46.614;14.276;2022-08-27T05:23:44;18.30;99.90
12315;DHT22;23886;46.614;14.276;2022-08-27T05:26:13;18.40;99.90
12315;DHT22;23886;46.614;14.276;2022-08-27T05:28:40;18.50;99.90
12315;DHT22;23886;46.614;14.276;2022-08-27T05:31:10;18.60;99.90
12315;DHT22;23886;46.614;14.276;2022-08-27T05:33:38;18.60;99.90
12315;DHT22;23886;46.614;14.276;2022-08-27T05:36:07;18.80;99.90
12315;DHT22;23886;46.614;14.276;2022-08-27T05:38:40;18.90;99.90
12315;DHT22;23886;46.614;14.276;2022-08-27T05:41:11;19.10;99.90
12315;DHT22;23886;46.614;14.276;2022-08-27T05:43:41;19.10;99.90
12315;DHT22;23886;46.614;14.276;2022-08-27T05:46:11;19.20;99.90
12315;DHT22;23886;46.614;14.276;2022-08-27T05:48:39;19.30;99.90
12315;DHT22;23886;46.614;14.276;2022-08-27T05:51:08;19.30;99.90
12315;DHT22;23886;46.614;14.276;2022-08-27T05:53:35;19.40;99.90
12315;DHT22;23886;46.614;14.276;2022-08-27T05:56:03;19.40;99.90
12315;DHT22;23886;46.614;14.276;2022-08-27T05:58:30;19.60;99.90
12315;DHT22;23886;46.614;14.276;2022-08-27T06:01:19;19.60;99.90
12315;DHT22;23886;46.614;14.276;2022-08-27T06:03:48;19.70;99.90
12315;DHT22;23886;46.614;14.276;2022-08-27T06:06:17;19.80;99.90
12315;DHT22;23886;46.614;14.276;2022-08-27T06:08:45;19.90;99.90
12315;DHT22;23886;46.614;14.276;2022-08-27T06:11:12;20.00;99.90
12315;DHT22;23886;46.614;14.276;2022-08-27T06:13:40;20.10;99.90
12315;DHT22;23886;46.614;14.276;2022-08-27T06:16:09;20.20;99.90
12315;DHT22;23886;46.614;14.276;2022-08-27T06:18:41;20.30;99.90
12315;DHT22;23886;46.614;14.276;2022-08-27T06:21:08;20.40;99.90
12315;DHT22;23886;46.614;14.276;2022-08-27T06:23:36;20.50;99.90
12315;DHT22;23886;46.614;14.276;2022-08-27T06:26:05;20.70;99.90
12315;DHT22;23886;46.614;14.276;2022-08-27T06:28:33;20.70;99.90
12315;DHT22;23886;46.614;14.276;2022-08-27T06:31:03;20.80;99.90
12315;DHT22;23886;46.614;14.276;2022-08-27T06:33:31;20.90;99.90
12315;DHT22;23886;46.614;14.276;2022-08-27T06:36:00;21.00;99.90
12315;DHT22;23886;46.614;14.276;2022-08-27T06:38:28;21.00;99.90
12315;DHT22;23886;46.614;14.276;2022-08-27T06:40:55;21.00;99.90
12315;DHT22;23886;46.614;14.276;2022-08-27T06:43:23;20.90;99.90
12315;DHT22;23886;46.614;14.276;2022-08-27T06:45:50;21.00;99.90
12315;DHT22;23886;46.614;14.276;2022-08-27T06:48:18;21.00;99.90
12315;DHT22;23886;46.614;14.276;2022-08-27T06:50:45;21.00;99.90
12315;DHT22;23886;46.614;14.276;2022-08-27T06:53:13;21.00;99.90
12315;DHT22;23886;46.614;14.276;2022-08-27T06:55:41;21.00;99.90
12315;DHT22;23886;46.614;14.276;2022-08-27T06:58:09;21.00;99.90
12315;DHT22;23886;46.614;14.276;2022-08-27T07:00:36;21.00;99.90
12315;DHT22;23886;46.614;14.276;2022-08-27T07:03:04;21.10;99.90
12315;DHT22;23886;46.614;14.276;2022-08-27T07:05:31;21.20;99.90
12315;DHT22;23886;46.614;14.276;2022-08-27T07:07:59;21.20;99.90
12315;DHT22;23886;46.614;14.276;2022-08-27T07:10:28;21.30;99.90
12315;DHT22;23886;46.614;14.276;2022-08-27T07:12:55;21.40;99.90
12315;DHT22;23886;46.614;14.276;2022-08-27T07:15:23;21.40;99.90
12315;DHT22;23886;46.614;14.276;2022-08-27T07:17:50;21.50;99.90
12315;DHT22;23886;46.614;14.276;2022-08-27T07:20:18;21.50;99.90
12315;DHT22;23886;46.614;14.276;2022-08-27T07:22:46;21.60;99.90
12315;DHT22;23886;46.614;14.276;2022-08-27T07:25:15;21.60;99.90
12315;DHT22;23886;46.614;14.276;2022-08-27T07:27:46;21.60;99.90
12315;DHT22;23886;46.614;14.276;2022-08-27T07:30:14;21.70;99.90
12315;DHT22;23886;46.614;14.276;2022-08-27T07:32:41;21.80;99.90
12315;DHT22;23886;46.614;14.276;2022-08-27T07:35:09;21.80;99.90
12315;DHT22;23886;46.614;14.276;2022-08-27T07:37:36;21.90;99.90
12315;DHT22;23886;46.614;14.276;2022-08-27T07:40:05;22.00;99.90
12315;DHT22;23886;46.614;14.276;2022-08-27T07:42:33;22.00;99.90
12315;DHT22;23886;46.614;14.276;2022-08-27T07:45:19;22.00;99.90
12315;DHT22;23886;46.614;14.276;2022-08-27T07:47:46;21.90;99.90
12315;DHT22;23886;46.614;14.276;2022-08-27T07:50:15;22.00;99.90
12315;DHT22;23886;46.614;14.276;2022-08-27T07:52:42;22.00;99.90
12315;DHT22;23886;46.614;14.276;2022-08-27T07:55:09;22.20;99.90
12315;DHT22;23886;46.614;14.276;2022-08-27T07:57:37;22.10;99.90
12315;DHT22;23886;46.614;14.276;2022-08-27T08:00:06;22.20;99.90
12315;DHT22;23886;46.614;14.276;2022-08-27T08:02:36;22.30;99.90
12315;DHT22;23886;46.614;14.276;2022-08-27T08:05:04;22.40;99.90
12315;DHT22;23886;46.614;14.276;2022-08-27T08:07:31;22.40;99.90
12315;DHT22;23886;46.614;14.276;2022-08-27T08:09:59;22.50;99.90
12315;DHT22;23886;46.614;14.276;2022-08-27T08:12:26;22.40;99.90
12315;DHT22;23886;46.614;14.276;2022-08-27T08:14:53;22.50;99.90
12315;DHT22;23886;46.614;14.276;2022-08-27T08:17:22;22.70;99.90
12315;DHT22;23886;46.614;14.276;2022-08-27T08:19:51;22.80;99.90
12315;DHT22;23886;46.614;14.276;2022-08-27T08:22:19;22.90;99.90
12315;DHT22;23886;46.614;14.276;2022-08-27T08:24:46;23.00;99.90
12315;DHT22;23886;46.614;14.276;2022-08-27T08:27:13;23.00;99.90
12315;DHT22;23886;46.614;14.276;2022-08-27T08:29:40;23.00;99.90
12315;DHT22;23886;46.614;14.276;2022-08-27T08:32:07;23.00;99.90
12315;DHT22;23886;46.614;14.276;2022-08-27T08:34:34;23.10;99.90
12315;DHT22;23886;46.614;14.276;2022-08-27T08:37:03;23.20;99.90
12315;DHT22;23886;46.614;14.276;2022-08-27T08:39:31;23.30;99.90
12315;DHT22;23886;46.614;14.276;2022-08-27T08:42:00;23.20;99.90
12315;DHT22;23886;46.614;14.276;2022-08-27T08:44:33;23.50;99.90
12315;DHT22;23886;46.614;14.276;2022-08-27T08:47:03;23.50;99.90
12315;DHT22;23886;46.614;14.276;2022-08-27T08:49:38;23.60;99.90
12315;DHT22;23886;46.614;14.276;2022-08-27T08:52:17;23.80;99.90
12315;DHT22;23886;46.614;14.276;2022-08-27T08:54:48;23.90;99.90
12315;DHT22;23886;46.614;14.276;2022-08-27T08:57:21;23.90;99.90
12315;DHT22;23886;46.614;14.276;2022-08-27T08:59:58;23.90;99.90
12315;DHT22;23886;46.614;14.276;2022-08-27T09:02:27;24.00;99.90
12315;DHT22;23886;46.614;14.276;2022-08-27T09:04:55;24.10;99.90
12315;DHT22;23886;46.614;14.276;2022-08-27T09:07:28;24.20;99.90
12315;DHT22;23886;46.614;14.276;2022-08-27T09:10:05;24.20;99.90
12315;DHT22;23886;46.614;14.276;2022-08-27T09:12:35;24.30;99.90
12315;DHT22;23886;46.614;14.276;2022-08-27T09:15:06;24.30;99.90
12315;DHT22;23886;46.614;14.276;2022-08-27T09:17:35;24.30;99.90
12315;DHT22;23886;46.614;14.276;2022-08-27T09:20:03;24.30;99.90
12315;DHT22;23886;46.614;14.276;2022-08-27T09:22:42;24.60;99.90
12315;DHT22;23886;46.614;14.276;2022-08-27T09:25:17;24.80;99.90
12315;DHT22;23886;46.614;14.276;2022-08-27T09:27:46;24.90;99.90
12315;DHT22;23886;46.614;14.276;2022-08-27T09:30:19;24.90;99.90
12315;DHT22;23886;46.614;14.276;2022-08-27T09:32:52;25.00;99.90
12315;DHT22;23886;46.614;14.276;2022-08-27T09:35:21;25.30;99.90
12315;DHT22;23886;46.614;14.276;2022-08-27T09:37:52;25.40;99.90
12315;DHT22;23886;46.614;14.276;2022-08-27T09:40:26;25.70;99.90
12315;DHT22;23886;46.614;14.276;2022-08-27T09:43:03;26.00;99.90
12315;DHT22;23886;46.614;14.276;2022-08-27T09:45:31;26.30;99.90
12315;DHT22;23886;46.614;14.276;2022-08-27T09:48:03;26.60;99.90
12315;DHT22;23886;46.614;14.276;2022-08-27T09:50:35;26.70;99.40
12315;DHT22;23886;46.614;14.276;2022-08-27T09:53:17;26.80;99.30
12315;DHT22;23886;46.614;14.276;2022-08-27T09:55:47;26.90;99.20
12315;DHT22;23886;46.614;14.276;2022-08-27T09:58:19;26.80;98.70
12315;DHT22;23886;46.614;14.276;2022-08-27T10:00:47;26.60;98.50
12315;DHT22;23886;46.614;14.276;2022-08-27T10:03:20;26.80;98.50
12315;DHT22;23886;46.614;14.276;2022-08-27T10:05:50;26.80;98.00
12315;DHT22;23886;46.614;14.276;2022-08-27T10:08:24;26.80;97.70
12315;DHT22;23886;46.614;14.276;2022-08-27T10:10:55;26.80;98.70
12315;DHT22;23886;46.614;14.276;2022-08-27T10:13:27;27.00;97.10
12315;DHT22;23886;46.614;14.276;2022-08-27T10:16:15;27.20;96.70
12315;DHT22;23886;46.614;14.276;2022-08-27T10:18:57;27.60;95.80
12315;DHT22;23886;46.614;14.276;2022-08-27T10:21:31;27.70;96.50
12315;DHT22;23886;46.614;14.276;2022-08-27T10:24:10;27.40;96.10
12315;DHT22;23886;46.614;14.276;2022-08-27T10:26:42;27.50;96.20
12315;DHT22;23886;46.614;14.276;2022-08-27T10:29:19;27.60;96.70
12315;DHT22;23886;46.614;14.276;2022-08-27T10:31:58;27.80;96.00
12315;DHT22;23886;46.614;14.276;2022-08-27T10:34:33;28.00;95.30
12315;DHT22;23886;46.614;14.276;2022-08-27T10:37:09;28.00;95.30
12315;DHT22;23886;46.614;14.276;2022-08-27T10:39:54;28.40;95.90
12315;DHT22;23886;46.614;14.276;2022-08-27T10:42:28;28.60;95.50
12315;DHT22;23886;46.614;14.276;2022-08-27T10:45:09;28.50;94.50
12315;DHT22;23886;46.614;14.276;2022-08-27T10:48:00;28.60;94.90
12315;DHT22;23886;46.614;14.276;2022-08-27T10:50:32;28.70;94.60
12315;DHT22;23886;46.614;14.276;2022-08-27T10:53:07;28.60;95.10
12315;DHT22;23886;46.614;14.276;2022-08-27T10:55:40;28.60;94.60
12315;DHT22;23886;46.614;14.276;2022-08-27T10:58:25;29.00;94.00
12315;DHT22;23886;46.614;14.276;2022-08-27T11:01:01;29.40;94.00
12315;DHT22;23886;46.614;14.276;2022-08-27T11:03:35;29.40;93.60
12315;DHT22;23886;46.614;14.276;2022-08-27T11:06:11;29.20;93.80
12315;DHT22;23886;46.614;14.276;2022-08-27T11:08:42;29.20;93.20
12315;DHT22;23886;46.614;14.276;2022-08-27T11:11:23;29.20;93.20
12315;DHT22;23886;46.614;14.276;2022-08-27T11:13:52;28.80;93.40
12315;DHT22;23886;46.614;14.276;2022-08-27T11:16:25;28.80;94.20
12315;DHT22;23886;46.614;14.276;2022-08-27T11:18:57;29.00;93.70
12315;DHT22;23886;46.614;14.276;2022-08-27T11:21:30;28.90;93.90
12315;DHT22;23886;46.614;14.276;2022-08-27T11:24:05;29.20;93.50
12315;DHT22;23886;46.614;14.276;2022-08-27T11:26:38;29.70;93.10
12315;DHT22;23886;46.614;14.276;2022-08-27T11:29:13;29.70;93.50
12315;DHT22;23886;46.614;14.276;2022-08-27T11:31:46;28.90;94.10
12315;DHT22;23886;46.614;14.276;2022-08-27T11:34:20;28.10;94.90
12315;DHT22;23886;46.614;14.276;2022-08-27T11:37:07;27.70;95.30
12315;DHT22;23886;46.614;14.276;2022-08-27T11:39:55;27.20;96.90
12315;DHT22;23886;46.614;14.276;2022-08-27T11:42:35;26.90;97.40
12315;DHT22;23886;46.614;14.276;2022-08-27T11:45:07;26.60;97.90
12315;DHT22;23886;46.614;14.276;2022-08-27T11:47:36;26.60;97.80
12315;DHT22;23886;46.614;14.276;2022-08-27T11:50:05;26.60;98.40
12315;DHT22;23886;46.614;14.276;2022-08-27T11:52:53;26.70;98.00
12315;DHT22;23886;46.614;14.276;2022-08-27T11:55:27;26.50;97.70
12315;DHT22;23886;46.614;14.276;2022-08-27T11:58:09;26.20;98.50
12315;DHT22;23886;46.614;14.276;2022-08-27T12:00:39;26.10;98.50
12315;DHT22;23886;46.614;14.276;2022-08-27T12:03:08;25.90;99.10
12315;DHT22;23886;46.614;14.276;2022-08-27T12:05:39;26.00;99.50
12315;DHT22;23886;46.614;14.276;2022-08-27T12:08:25;25.90;99.30
12315;DHT22;23886;46.614;14.276;2022-08-27T12:11:10;25.60;98.20
12315;DHT22;23886;46.614;14.276;2022-08-27T12:13:51;25.70;99.20
12315;DHT22;23886;46.614;14.276;2022-08-27T12:16:27;25.60;99.00
12315;DHT22;23886;46.614;14.276;2022-08-27T12:19:09;25.70;99.50
12315;DHT22;23886;46.614;14.276;2022-08-27T12:21:48;25.70;99.90
12315;DHT22;23886;46.614;14.276;2022-08-27T12:24:40;25.50;99.20
12315;DHT22;23886;46.614;14.276;2022-08-27T12:27:24;25.40;99.60
12315;DHT22;23886;46.614;14.276;2022-08-27T12:29:55;25.30;99.90
12315;DHT22;23886;46.614;14.276;2022-08-27T12:32:29;25.40;99.90
12315;DHT22;23886;46.614;14.276;2022-08-27T12:35:06;25.50;99.90
12315;DHT22;23886;46.614;14.276;2022-08-27T12:37:37;25.30;99.90
12315;DHT22;23886;46.614;14.276;2022-08-27T12:40:12;25.20;99.90
12315;DHT22;23886;46.614;14.276;2022-08-27T12:42:42;25.10;99.90
12315;DHT22;23886;46.614;14.276;2022-08-27T12:45:19;25.10;99.90
12315;DHT22;23886;46.614;14.276;2022-08-27T12:47:47;25.10;99.90
12315;DHT22;23886;46.614;14.276;2022-08-27T12:50:20;25.10;99.90
12315;DHT22;23886;46.614;14.276;2022-08-27T12:53:06;25.00;99.90
12315;DHT22;23886;46.614;14.276;2022-08-27T12:55:46;24.90;99.90
12315;DHT22;23886;46.614;14.276;2022-08-27T12:58:21;24.80;99.90
12315;DHT22;23886;46.614;14.276;2022-08-27T13:01:07;24.70;99.90
12315;DHT22;23886;46.614;14.276;2022-08-27T13:03:38;24.50;99.90
12315;DHT22;23886;46.614;14.276;2022-08-27T13:06:15;24.40;99.90
12315;DHT22;23886;46.614;14.276;2022-08-27T13:08:43;24.40;99.90
12315;DHT22;23886;46.614;14.276;2022-08-27T13:11:16;24.40;99.90
12315;DHT22;23886;46.614;14.276;2022-08-27T13:13:44;24.30;99.90
12315;DHT22;23886;46.614;14.276;2022-08-27T13:16:15;23.90;99.90
12315;DHT22;23886;46.614;14.276;2022-08-27T13:18:46;23.60;99.90
12315;DHT22;23886;46.614;14.276;2022-08-27T13:21:20;23.30;99.90
12315;DHT22;23886;46.614;14.276;2022-08-27T13:23:52;22.80;99.90
12315;DHT22;23886;46.614;14.276;2022-08-27T13:26:22;22.10;99.90
12315;DHT22;23886;46.614;14.276;2022-08-27T13:28:50;21.30;99.90
12315;DHT22;23886;46.614;14.276;2022-08-27T13:31:20;21.20;99.90
12315;DHT22;23886;46.614;14.276;2022-08-27T13:33:49;21.20;99.90
12315;DHT22;23886;46.614;14.276;2022-08-27T13:36:25;21.30;99.90
12315;DHT22;23886;46.614;14.276;2022-08-27T13:38:53;21.10;99.90
12315;DHT22;23886;46.614;14.276;2022-08-27T13:41:26;21.00;99.90
12315;DHT22;23886;46.614;14.276;2022-08-27T13:43:55;20.90;99.90
12315;DHT22;23886;46.614;14.276;2022-08-27T13:46:26;20.80;99.90
12315;DHT22;23886;46.614;14.276;2022-08-27T13:48:56;20.90;99.90
12315;DHT22;23886;46.614;14.276;2022-08-27T13:51:25;20.90;99.90
12315;DHT22;23886;46.614;14.276;2022-08-27T13:53:54;21.10;99.90
12315;DHT22;23886;46.614;14.276;2022-08-27T13:56:54;21.20;99.90
12315;DHT22;23886;46.614;14.276;2022-08-27T13:59:23;21.30;99.90
12315;DHT22;23886;46.614;14.276;2022-08-27T14:01:57;21.60;99.90
12315;DHT22;23886;46.614;14.276;2022-08-27T14:04:26;21.70;99.90
12315;DHT22;23886;46.614;14.276;2022-08-27T14:06:53;21.80;99.90
12315;DHT22;23886;46.614;14.276;2022-08-27T14:09:23;21.90;99.90
12315;DHT22;23886;46.614;14.276;2022-08-27T14:11:58;22.00;99.90
12315;DHT22;23886;46.614;14.276;2022-08-27T14:14:25;22.30;99.90
12315;DHT22;23886;46.614;14.276;2022-08-27T14:16:58;22.40;99.90
12315;DHT22;23886;46.614;14.276;2022-08-27T14:19:27;22.20;99.90
12315;DHT22;23886;46.614;14.276;2022-08-27T14:21:55;22.20;99.90
12315;DHT22;23886;46.614;14.276;2022-08-27T14:24:22;22.30;99.90
12315;DHT22;23886;46.614;14.276;2022-08-27T14:26:50;22.30;99.90
12315;DHT22;23886;46.614;14.276;2022-08-27T14:29:17;22.50;99.90
12315;DHT22;23886;46.614;14.276;2022-08-27T14:31:44;22.50;99.90
12315;DHT22;23886;46.614;14.276;2022-08-27T14:34:13;22.60;99.90
12315;DHT22;23886;46.614;14.276;2022-08-27T14:36:41;22.70;99.90
12315;DHT22;23886;46.614;14.276;2022-08-27T14:39:09;22.70;99.90
12315;DHT22;23886;46.614;14.276;2022-08-27T14:41:37;22.70;99.90
12315;DHT22;23886;46.614;14.276;2022-08-27T14:44:05;22.80;99.90
12315;DHT22;23886;46.614;14.276;2022-08-27T14:46:33;23.10;99.90
12315;DHT22;23886;46.614;14.276;2022-08-27T14:49:11;23.30;99.90
12315;DHT22;23886;46.614;14.276;2022-08-27T14:51:42;23.60;99.90
12315;DHT22;23886;46.614;14.276;2022-08-27T14:54:10;23.70;99.90
12315;DHT22;23886;46.614;14.276;2022-08-27T14:56:37;24.10;99.90
12315;DHT22;23886;46.614;14.276;2022-08-27T14:59:04;24.20;99.90
12315;DHT22;23886;46.614;14.276;2022-08-27T15:01:31;24.30;99.90
12315;DHT22;23886;46.614;14.276;2022-08-27T15:04:03;24.50;99.90
12315;DHT22;23886;46.614;14.276;2022-08-27T15:06:31;24.30;99.90
12315;DHT22;23886;46.614;14.276;2022-08-27T15:08:59;24.10;99.90
12315;DHT22;23886;46.614;14.276;2022-08-27T15:11:29;24.00;99.90
12315;DHT22;23886;46.614;14.276;2022-08-27T15:13:58;24.00;99.90
12315;DHT22;23886;46.614;14.276;2022-08-27T15:16:28;24.00;99.90
12315;DHT22;23886;46.614;14.276;2022-08-27T15:18:55;24.00;99.90
12315;DHT22;23886;46.614;14.276;2022-08-27T15:21:23;23.90;99.90
12315;DHT22;23886;46.614;14.276;2022-08-27T15:23:56;24.00;99.90
12315;DHT22;23886;46.614;14.276;2022-08-27T15:26:25;24.10;99.90
12315;DHT22;23886;46.614;14.276;2022-08-27T15:28:52;24.50;99.90
12315;DHT22;23886;46.614;14.276;2022-08-27T15:31:19;24.80;99.90
12315;DHT22;23886;46.614;14.276;2022-08-27T15:33:46;24.60;99.90
12315;DHT22;23886;46.614;14.276;2022-08-27T15:36:14;24.70;99.90